Etusivu
METAR-TAF:

METAR-TAF

Lentoasemat :

Burlington / Mount Vernon, Washington, Yhdysvallat

Leveyspiiri: 48-28-15N, Pituuspiiri: 122-25-15W, korkeus merenpinnasta: 44 m

Tämänhetkinen sää

Tämä raportti tehtiin 18 minuuttia sitten, kello 02.55 UTC
Tuuli 7 kn etelästä
Lämpötila 13°C
Kosteus 94%
Ilmanpaine 1003 hPa
Näkyvyys: 16.1 km
Hajonneita pilviä 1600 ft:n korkeudessa
Pilvistä 2100 ft:n korkeudessa

METAR: KBVS 170255Z AUTO 17007KT 10SM BKN016 OVC021 13/12 A2961 RMK A01

Aika: 20:13 (03:13 UTC)


TAF: puuttuu

Säähavainnot ja -ennusteet yli 4000 lentoasemalta (METAR- ja TAF-raportit).

Käytössä olevat sääasemat on merkitty karttaan keltaisilla ja punaisilla pisteillä.

Aseta hiiri pisteen päälle nähdäksesi sääaseman nimen.

Klikkaa sitten nähdäksesi säähavainnot ja -ennusteet.

Kartan vaihtaminen: klikkaa mustalla rastilla varustettuja vihreitä pisteitä, niin voit zoomata sisään; viivalla varustettua vihreää pistettä, niin voit zoomata ulos tai vihreitä nuolia, niin pääset viereisille kartoille.


METAR-TAF: